createdAt,value
2022-10-26T00:00:08.075Z,89.46
2022-10-26T00:02:34.661Z,89.12
2022-10-26T00:05:01.158Z,89.17
2022-10-26T00:07:29.659Z,89.21
2022-10-26T00:09:56.147Z,89.23
2022-10-26T00:12:22.707Z,89.10
2022-10-26T00:14:49.153Z,89.28
2022-10-26T00:17:15.633Z,89.19
2022-10-26T00:19:42.132Z,89.14
2022-10-26T00:22:08.614Z,89.31
2022-10-26T00:24:35.017Z,89.01
2022-10-26T00:27:01.532Z,89.06
2022-10-26T00:29:28.077Z,88.95
2022-10-26T00:31:54.537Z,88.72
2022-10-26T00:34:20.950Z,88.81
2022-10-26T00:36:47.388Z,88.62
2022-10-26T00:39:13.929Z,88.66
2022-10-26T00:41:40.494Z,88.65
2022-10-26T00:44:44.536Z,88.76
2022-10-26T00:47:33.301Z,88.61
2022-10-26T00:50:06.297Z,88.35
2022-10-26T00:52:33.836Z,88.36
2022-10-26T00:55:00.804Z,88.39
2022-10-26T00:57:27.741Z,88.40
2022-10-26T00:59:55.930Z,88.23
2022-10-26T01:02:22.674Z,88.31
2022-10-26T01:04:50.158Z,88.06
2022-10-26T01:07:16.967Z,88.12
2022-10-26T01:09:43.853Z,87.90
2022-10-26T01:12:10.254Z,87.82
2022-10-26T01:14:36.874Z,87.92
2022-10-26T01:17:35.065Z,87.58
2022-10-26T01:20:30.563Z,87.50
2022-10-26T01:23:05.245Z,87.46
2022-10-26T01:25:50.192Z,87.39
2022-10-26T01:28:38.081Z,87.41
2022-10-26T01:31:09.095Z,87.20
2022-10-26T01:33:50.097Z,87.24
2022-10-26T01:36:26.446Z,87.37
2022-10-26T01:38:58.283Z,87.26
2022-10-26T01:41:37.397Z,87.28
2022-10-26T01:44:09.310Z,87.31
2022-10-26T01:46:40.036Z,87.33
2022-10-26T01:49:10.461Z,87.27
2022-10-26T01:51:39.847Z,86.96
2022-10-26T01:54:06.415Z,87.15
2022-10-26T01:56:38.888Z,87.00
2022-10-26T01:59:37.567Z,87.13
2022-10-26T02:02:32.406Z,87.18
2022-10-26T02:05:10.472Z,87.24
2022-10-26T02:08:08.017Z,87.33
2022-10-26T02:11:02.778Z,87.15
2022-10-26T02:13:45.357Z,87.28
2022-10-26T02:16:24.893Z,87.42
2022-10-26T02:18:57.454Z,87.25
2022-10-26T02:21:30.683Z,87.20
2022-10-26T02:23:59.457Z,87.37
2022-10-26T02:26:29.529Z,87.41
2022-10-26T02:29:01.635Z,87.45
2022-10-26T02:31:31.220Z,87.82
2022-10-26T02:34:02.194Z,87.60
2022-10-26T02:36:33.329Z,87.76
2022-10-26T02:39:03.394Z,87.72
2022-10-26T02:41:31.241Z,87.72
2022-10-26T02:44:23.259Z,87.91
2022-10-26T02:46:51.735Z,87.87
2022-10-26T02:49:19.373Z,87.74
2022-10-26T02:51:54.766Z,87.64
2022-10-26T02:54:44.821Z,87.64
2022-10-26T02:57:19.162Z,87.91
2022-10-26T02:59:47.929Z,87.89
2022-10-26T03:02:17.654Z,87.97
2022-10-26T03:04:44.160Z,87.98
2022-10-26T03:07:10.595Z,87.94
2022-10-26T03:09:37.047Z,88.02
2022-10-26T03:12:03.734Z,88.11
2022-10-26T03:14:30.151Z,87.95
2022-10-26T03:16:56.573Z,88.26
2022-10-26T03:19:23.088Z,88.12
2022-10-26T03:21:49.514Z,87.95
2022-10-26T03:24:15.970Z,87.97
2022-10-26T03:26:42.385Z,88.12
2022-10-26T03:29:09.095Z,88.15
2022-10-26T03:31:35.805Z,88.10
2022-10-26T03:34:02.233Z,88.02
2022-10-26T03:36:28.645Z,87.90
2022-10-26T03:38:55.087Z,87.92
2022-10-26T03:41:21.491Z,87.99
2022-10-26T03:43:48.840Z,88.05
2022-10-26T03:46:15.461Z,87.94
2022-10-26T03:48:41.891Z,87.91
2022-10-26T03:51:08.592Z,88.08
2022-10-26T03:53:35.022Z,87.88
2022-10-26T03:56:01.500Z,87.93
2022-10-26T03:58:27.955Z,87.86
2022-10-26T04:00:54.379Z,87.99
2022-10-26T04:03:20.795Z,87.94
2022-10-26T04:05:47.266Z,88.00
2022-10-26T04:08:13.920Z,88.08
2022-10-26T04:10:40.413Z,88.23
2022-10-26T04:13:06.871Z,88.17
2022-10-26T04:15:33.304Z,88.51
2022-10-26T04:18:02.306Z,88.56
2022-10-26T04:20:30.402Z,88.38
2022-10-26T04:22:58.666Z,88.54
2022-10-26T04:25:27.538Z,88.69
2022-10-26T04:27:56.648Z,88.58
2022-10-26T04:30:24.051Z,88.65
2022-10-26T04:32:51.064Z,88.69
2022-10-26T04:35:17.817Z,88.77
2022-10-26T04:37:44.266Z,88.76
2022-10-26T04:40:11.164Z,88.65
2022-10-26T04:42:47.896Z,88.68
2022-10-26T04:45:16.282Z,88.70
2022-10-26T04:47:43.338Z,88.81
2022-10-26T04:50:11.334Z,88.73
2022-10-26T04:52:38.158Z,88.56
2022-10-26T04:55:06.198Z,88.66
2022-10-26T04:57:36.043Z,88.77
2022-10-26T05:00:04.249Z,88.87
2022-10-26T05:02:30.808Z,88.66
2022-10-26T05:04:57.386Z,88.62
2022-10-26T05:07:24.087Z,88.82
2022-10-26T05:09:50.549Z,88.73
2022-10-26T05:12:17.053Z,88.92
2022-10-26T05:14:43.488Z,89.05
2022-10-26T05:17:09.928Z,88.82
2022-10-26T05:19:36.358Z,89.06
2022-10-26T05:22:02.988Z,89.15
2022-10-26T05:24:29.387Z,89.00
2022-10-26T05:26:55.842Z,88.95
2022-10-26T05:29:22.320Z,88.96
2022-10-26T05:31:48.752Z,88.79
2022-10-26T05:34:16.295Z,88.99
2022-10-26T05:36:42.730Z,88.79
2022-10-26T05:39:09.658Z,88.88
2022-10-26T05:41:36.095Z,88.84
2022-10-26T05:44:02.511Z,88.81
2022-10-26T05:46:29.010Z,88.82
2022-10-26T05:48:55.737Z,88.64
2022-10-26T05:51:22.999Z,88.79
2022-10-26T05:53:54.246Z,88.95
2022-10-26T05:56:33.789Z,88.79
2022-10-26T05:59:00.523Z,88.98
2022-10-26T06:01:40.664Z,89.02
2022-10-26T06:04:30.338Z,88.99
2022-10-26T06:06:58.770Z,89.20
2022-10-26T06:09:25.797Z,89.11
2022-10-26T06:11:52.477Z,89.29
2022-10-26T06:14:19.249Z,89.33
2022-10-26T06:17:04.796Z,89.28
2022-10-26T06:20:19.112Z,89.29
2022-10-26T06:23:03.883Z,89.09
2022-10-26T06:25:49.538Z,89.27
2022-10-26T06:28:39.520Z,89.21
2022-10-26T06:31:06.114Z,89.47
2022-10-26T06:33:33.130Z,89.46
2022-10-26T06:36:06.511Z,89.50
2022-10-26T06:38:35.157Z,89.47
2022-10-26T06:41:03.663Z,89.32
2022-10-26T06:43:33.595Z,89.33
2022-10-26T06:46:17.665Z,89.55
2022-10-26T06:49:05.868Z,89.57
2022-10-26T06:51:41.075Z,89.53
2022-10-26T06:54:30.729Z,89.68
2022-10-26T06:56:57.467Z,89.63
2022-10-26T06:59:32.195Z,89.43
2022-10-26T07:02:01.658Z,89.39
2022-10-26T07:04:30.868Z,89.20
2022-10-26T07:06:57.657Z,88.82
2022-10-26T07:09:24.134Z,88.63
2022-10-26T07:11:50.541Z,88.33
2022-10-26T07:14:16.974Z,88.31
2022-10-26T07:16:43.388Z,88.04
2022-10-26T07:19:09.818Z,88.17
2022-10-26T07:21:36.229Z,87.72
2022-10-26T07:24:02.783Z,88.01
2022-10-26T07:26:29.239Z,87.93
2022-10-26T07:28:55.683Z,87.89
2022-10-26T07:31:22.132Z,87.87
2022-10-26T07:33:48.558Z,87.76
2022-10-26T07:36:16.382Z,87.88
2022-10-26T07:38:42.846Z,88.75
2022-10-26T07:41:09.336Z,88.36
2022-10-26T07:43:35.767Z,87.86
2022-10-26T07:46:02.368Z,87.71
2022-10-26T07:48:28.809Z,87.46
2022-10-26T07:50:55.298Z,87.59
2022-10-26T07:53:26.751Z,87.22
2022-10-26T07:55:55.410Z,87.47
2022-10-26T07:58:25.884Z,87.72
2022-10-26T08:00:53.589Z,87.46
2022-10-26T08:03:21.066Z,87.64
2022-10-26T08:05:51.224Z,87.12
2022-10-26T08:08:18.530Z,87.22
2022-10-26T08:10:46.178Z,87.09
2022-10-26T08:13:13.165Z,87.22
2022-10-26T08:15:39.847Z,87.16
2022-10-26T08:18:06.678Z,87.50
2022-10-26T08:20:33.537Z,87.31
2022-10-26T08:23:01.248Z,87.80
2022-10-26T08:25:27.979Z,87.25
2022-10-26T08:27:54.517Z,87.10
2022-10-26T08:30:21.094Z,86.86
2022-10-26T08:32:48.145Z,87.45
2022-10-26T08:35:15.052Z,87.24
2022-10-26T08:37:41.514Z,87.28
2022-10-26T08:40:15.609Z,87.07
2022-10-26T08:42:50.238Z,86.73
2022-10-26T08:45:37.147Z,86.61
2022-10-26T08:48:12.149Z,86.77
2022-10-26T08:50:45.746Z,86.55
2022-10-26T08:53:22.052Z,86.74
2022-10-26T08:55:56.450Z,86.16
2022-10-26T08:58:30.148Z,86.54
2022-10-26T09:00:56.680Z,86.83
2022-10-26T09:03:24.497Z,86.12
2022-10-26T09:06:09.191Z,86.34
2022-10-26T09:08:47.740Z,86.66
2022-10-26T09:11:40.150Z,86.54
2022-10-26T09:14:12.481Z,86.13
2022-10-26T09:17:06.718Z,85.34
2022-10-26T09:19:56.331Z,85.80
2022-10-26T09:22:32.688Z,85.27
2022-10-26T09:25:13.793Z,85.88
2022-10-26T09:27:45.306Z,85.44
2022-10-26T09:30:18.465Z,85.09
2022-10-26T09:32:50.921Z,85.17
2022-10-26T09:35:23.845Z,85.25
2022-10-26T09:37:56.717Z,85.18
2022-10-26T09:40:31.462Z,85.00
2022-10-26T09:43:18.636Z,85.19
2022-10-26T09:45:49.074Z,85.35
2022-10-26T09:48:35.674Z,85.30
2022-10-26T09:51:04.672Z,85.85
2022-10-26T09:53:32.049Z,85.46
2022-10-26T09:56:05.690Z,86.14
2022-10-26T09:58:37.754Z,85.16
2022-10-26T10:01:04.492Z,85.05
2022-10-26T10:03:32.733Z,85.68
2022-10-26T10:06:17.609Z,85.77
2022-10-26T10:08:46.475Z,84.51
2022-10-26T10:11:15.114Z,84.94
2022-10-26T10:13:44.169Z,85.14
2022-10-26T10:16:12.903Z,84.93
2022-10-26T10:18:41.677Z,85.21
2022-10-26T10:21:10.168Z,85.92
2022-10-26T10:23:47.484Z,85.93
2022-10-26T10:26:13.981Z,86.20
2022-10-26T10:28:42.612Z,85.25
2022-10-26T10:31:21.490Z,84.76
2022-10-26T10:33:49.293Z,85.24
2022-10-26T10:36:23.049Z,85.33
2022-10-26T10:38:51.626Z,84.07
2022-10-26T10:41:27.241Z,84.20
2022-10-26T10:43:55.917Z,85.37
2022-10-26T10:46:26.779Z,84.40
2022-10-26T10:49:02.688Z,84.37
2022-10-26T10:51:35.997Z,84.09
2022-10-26T10:54:04.610Z,84.19
2022-10-26T10:57:13.161Z,84.27
2022-10-26T10:59:54.794Z,84.18
2022-10-26T11:02:27.267Z,85.01
2022-10-26T11:05:21.984Z,83.86
2022-10-26T11:08:09.307Z,83.73
2022-10-26T11:10:44.865Z,84.01
2022-10-26T11:13:24.025Z,83.87
2022-10-26T11:15:56.016Z,82.81
2022-10-26T11:18:37.531Z,83.61
2022-10-26T11:21:15.546Z,83.77
2022-10-26T11:23:52.725Z,83.84
2022-10-26T11:26:33.907Z,83.92
2022-10-26T11:29:11.603Z,84.58
2022-10-26T11:31:49.930Z,85.42
2022-10-26T11:34:44.340Z,85.53
2022-10-26T11:37:22.205Z,84.91
2022-10-26T11:40:18.705Z,84.91
2022-10-26T11:42:53.725Z,84.63
2022-10-26T11:45:26.482Z,84.41
2022-10-26T11:48:00.113Z,84.55
2022-10-26T11:50:33.330Z,84.20
2022-10-26T11:53:17.272Z,83.17
2022-10-26T11:55:51.723Z,84.04
2022-10-26T11:58:18.839Z,82.40
2022-10-26T12:00:53.182Z,83.05
2022-10-26T12:03:28.493Z,82.53
2022-10-26T12:05:54.998Z,82.66
2022-10-26T12:08:28.133Z,82.72
2022-10-26T12:11:15.135Z,82.48
2022-10-26T12:14:02.895Z,83.53
2022-10-26T12:16:52.050Z,83.30
2022-10-26T12:19:21.619Z,82.73
2022-10-26T12:21:50.115Z,82.99
2022-10-26T12:24:22.438Z,81.15
2022-10-26T12:26:59.843Z,81.61
2022-10-26T12:29:38.057Z,80.37
2022-10-26T12:32:25.900Z,80.68
2022-10-26T12:34:54.842Z,81.63
2022-10-26T12:37:37.250Z,80.57
2022-10-26T12:40:34.973Z,81.16
2022-10-26T12:43:13.529Z,81.00
2022-10-26T12:45:41.555Z,80.43
2022-10-26T12:48:39.705Z,79.13
2022-10-26T12:51:21.857Z,79.57
2022-10-26T12:54:09.282Z,79.69
2022-10-26T12:56:42.004Z,79.14
2022-10-26T12:59:19.394Z,79.27
2022-10-26T13:02:17.183Z,80.03
2022-10-26T13:05:21.155Z,80.60
2022-10-26T13:07:48.962Z,79.80
2022-10-26T13:10:15.326Z,80.14
2022-10-26T13:12:56.934Z,81.92
2022-10-26T13:15:27.890Z,81.42
2022-10-26T13:18:09.827Z,80.60
2022-10-26T13:21:05.920Z,80.29
2022-10-26T13:23:36.562Z,79.76
2022-10-26T13:26:18.346Z,80.40
2022-10-26T13:29:00.695Z,80.76
2022-10-26T13:31:47.146Z,80.58
2022-10-26T13:34:21.993Z,79.49
2022-10-26T13:37:17.498Z,80.71
2022-10-26T13:39:47.209Z,79.82
2022-10-26T13:42:18.208Z,79.50
2022-10-26T13:44:58.672Z,79.69
2022-10-26T13:47:39.135Z,79.25
2022-10-26T13:50:08.698Z,78.59
2022-10-26T13:52:41.237Z,78.12
2022-10-26T13:55:32.748Z,78.84
2022-10-26T13:58:05.343Z,79.61
2022-10-26T14:00:31.870Z,77.37
2022-10-26T14:02:58.317Z,77.72
2022-10-26T14:05:25.198Z,76.75
2022-10-26T14:07:57.916Z,77.21
2022-10-26T14:10:26.841Z,76.52
2022-10-26T14:12:53.895Z,77.33
2022-10-26T14:15:26.784Z,77.05
2022-10-26T14:17:54.730Z,76.10
2022-10-26T14:20:24.639Z,75.69
2022-10-26T14:22:52.104Z,74.95
2022-10-26T14:25:26.669Z,76.54
2022-10-26T14:28:04.814Z,76.53
2022-10-26T14:30:32.863Z,76.40
2022-10-26T14:32:59.854Z,76.53
2022-10-26T14:35:33.038Z,76.46
2022-10-26T14:38:05.902Z,75.66
2022-10-26T14:40:35.433Z,76.68
2022-10-26T14:43:05.574Z,77.19
2022-10-26T14:45:48.584Z,77.84
2022-10-26T14:48:28.428Z,77.32
2022-10-26T14:50:59.661Z,77.72
2022-10-26T14:53:36.470Z,77.09
2022-10-26T14:56:05.203Z,76.10
2022-10-26T14:58:33.026Z,77.12
2022-10-26T15:01:21.745Z,77.25
2022-10-26T15:04:26.650Z,76.75
2022-10-26T15:06:53.081Z,77.62
2022-10-26T15:09:47.365Z,77.60
2022-10-26T15:12:25.758Z,78.09
2022-10-26T15:14:53.108Z,79.10
2022-10-26T15:17:27.637Z,79.15
2022-10-26T15:19:55.340Z,78.40
2022-10-26T15:22:28.237Z,78.62
2022-10-26T15:25:00.463Z,78.54
2022-10-26T15:27:26.976Z,78.83
2022-10-26T15:30:12.718Z,78.66
2022-10-26T15:32:39.243Z,78.60
2022-10-26T15:35:11.765Z,78.38
2022-10-26T15:37:39.080Z,77.64
2022-10-26T15:40:06.717Z,77.72
2022-10-26T15:42:38.106Z,77.38
2022-10-26T15:45:26.046Z,77.47
2022-10-26T15:47:54.601Z,77.51
2022-10-26T15:50:23.926Z,77.34
2022-10-26T15:52:56.190Z,77.66
2022-10-26T15:55:22.632Z,77.74
2022-10-26T15:57:50.795Z,77.95
2022-10-26T16:00:18.298Z,78.18
2022-10-26T16:02:45.633Z,78.41
2022-10-26T16:05:14.788Z,78.35
2022-10-26T16:07:43.256Z,78.44
2022-10-26T16:10:17.090Z,78.77
2022-10-26T16:12:43.678Z,79.12
2022-10-26T16:15:17.393Z,79.19
2022-10-26T16:17:44.422Z,79.40
2022-10-26T16:20:18.193Z,79.13
2022-10-26T16:22:48.260Z,79.44
2022-10-26T16:25:20.410Z,79.25
2022-10-26T16:27:47.381Z,79.54
2022-10-26T16:30:14.430Z,79.70
2022-10-26T16:32:41.269Z,79.90
2022-10-26T16:35:08.482Z,79.52
2022-10-26T16:37:34.961Z,79.35
2022-10-26T16:40:01.561Z,79.69
2022-10-26T16:42:28.504Z,79.74
2022-10-26T16:44:57.591Z,79.90
2022-10-26T16:47:27.128Z,80.04
2022-10-26T16:49:53.706Z,80.31
2022-10-26T16:52:20.273Z,80.36
2022-10-26T16:54:46.699Z,80.16
2022-10-26T16:57:13.165Z,80.73
2022-10-26T16:59:39.656Z,81.24
2022-10-26T17:02:06.171Z,81.37
2022-10-26T17:04:32.725Z,81.57
2022-10-26T17:06:59.187Z,81.45
2022-10-26T17:09:25.627Z,81.29
2022-10-26T17:11:54.211Z,81.49
2022-10-26T17:14:21.919Z,81.53
2022-10-26T17:16:48.413Z,81.42
2022-10-26T17:19:14.845Z,81.70
2022-10-26T17:21:41.320Z,81.91
2022-10-26T17:24:07.940Z,81.99
2022-10-26T17:26:34.357Z,82.08
2022-10-26T17:29:00.919Z,82.03
2022-10-26T17:31:27.468Z,82.12
2022-10-26T17:33:55.942Z,82.18
2022-10-26T17:36:23.382Z,82.15
2022-10-26T17:38:51.989Z,82.02
2022-10-26T17:41:19.867Z,82.13
2022-10-26T17:43:47.710Z,82.34
2022-10-26T17:46:25.329Z,82.20
2022-10-26T17:48:59.239Z,82.46
2022-10-26T17:51:27.623Z,82.41
2022-10-26T17:53:54.963Z,82.49
2022-10-26T17:56:30.212Z,82.76
2022-10-26T17:58:59.301Z,82.77
2022-10-26T18:01:27.123Z,82.93
2022-10-26T18:03:54.242Z,82.78
2022-10-26T18:06:21.446Z,83.03
2022-10-26T18:08:48.095Z,83.11
2022-10-26T18:11:25.382Z,83.23
2022-10-26T18:13:54.152Z,83.45
2022-10-26T18:16:22.294Z,83.27
2022-10-26T18:18:50.328Z,83.45
2022-10-26T18:21:19.650Z,83.55
2022-10-26T18:23:46.702Z,83.56
2022-10-26T18:26:18.730Z,83.43
2022-10-26T18:28:46.018Z,83.69
2022-10-26T18:31:15.082Z,83.34
2022-10-26T18:33:41.708Z,83.54
2022-10-26T18:36:16.996Z,83.78
2022-10-26T18:38:44.182Z,84.12
2022-10-26T18:41:12.081Z,84.34
2022-10-26T18:43:46.750Z,84.35
2022-10-26T18:46:18.986Z,84.83
2022-10-26T18:48:47.915Z,84.56
2022-10-26T18:51:16.359Z,84.76
2022-10-26T18:53:44.386Z,84.81
2022-10-26T18:56:16.534Z,85.04
2022-10-26T18:58:46.277Z,85.26
2022-10-26T19:01:16.016Z,85.56
2022-10-26T19:03:43.768Z,85.46
2022-10-26T19:06:18.177Z,85.89
2022-10-26T19:08:45.739Z,85.65
2022-10-26T19:11:14.933Z,85.85
2022-10-26T19:13:42.234Z,85.94
2022-10-26T19:16:17.218Z,85.90
2022-10-26T19:18:56.155Z,85.96
2022-10-26T19:21:23.672Z,85.94
2022-10-26T19:23:54.614Z,86.13
2022-10-26T19:26:23.397Z,86.56
2022-10-26T19:28:57.757Z,86.56
2022-10-26T19:31:27.275Z,86.88
2022-10-26T19:33:57.884Z,86.72
2022-10-26T19:36:24.652Z,87.21
2022-10-26T19:38:51.139Z,87.49
2022-10-26T19:41:17.720Z,87.54
2022-10-26T19:43:45.168Z,87.64
2022-10-26T19:46:21.146Z,87.55
2022-10-26T19:48:49.655Z,86.62
2022-10-26T19:51:16.427Z,86.08
2022-10-26T19:53:43.072Z,85.84
2022-10-26T19:56:13.181Z,86.00
2022-10-26T19:58:43.929Z,86.83
2022-10-26T20:01:12.385Z,86.95
2022-10-26T20:03:39.166Z,87.24
2022-10-26T20:06:08.480Z,87.51
2022-10-26T20:08:38.602Z,87.60
2022-10-26T20:11:09.010Z,87.53
2022-10-26T20:13:39.298Z,87.95
2022-10-26T20:16:07.379Z,88.05
2022-10-26T20:18:34.165Z,88.52
2022-10-26T20:21:00.684Z,88.70
2022-10-26T20:23:27.261Z,89.19
2022-10-26T20:25:55.326Z,89.10
2022-10-26T20:28:21.778Z,89.01
2022-10-26T20:30:49.626Z,88.83
2022-10-26T20:33:16.476Z,88.98
2022-10-26T20:35:42.934Z,89.30
2022-10-26T20:38:19.248Z,89.01
2022-10-26T20:40:57.142Z,89.29
2022-10-26T20:43:24.334Z,89.30
2022-10-26T20:45:51.547Z,89.47
2022-10-26T20:48:18.463Z,89.54
2022-10-26T20:50:58.751Z,89.50
2022-10-26T20:53:52.864Z,88.92
2022-10-26T20:56:24.734Z,88.84
2022-10-26T20:58:53.973Z,89.36
2022-10-26T21:01:26.699Z,88.97
2022-10-26T21:03:54.646Z,89.06
2022-10-26T21:06:22.160Z,89.28
2022-10-26T21:08:49.997Z,89.18
2022-10-26T21:11:17.532Z,89.45
2022-10-26T21:13:45.754Z,89.79
2022-10-26T21:16:12.386Z,90.06
2022-10-26T21:18:39.126Z,89.98
2022-10-26T21:21:06.171Z,90.14
2022-10-26T21:23:38.531Z,89.94
2022-10-26T21:26:06.021Z,89.80
2022-10-26T21:28:34.913Z,89.83
2022-10-26T21:31:06.270Z,89.69
2022-10-26T21:33:33.507Z,89.70
2022-10-26T21:36:01.034Z,89.81
2022-10-26T21:38:28.730Z,89.82
2022-10-26T21:41:11.513Z,89.94
2022-10-26T21:43:40.957Z,90.13
2022-10-26T21:46:08.537Z,89.89
2022-10-26T21:48:35.593Z,89.84
2022-10-26T21:51:04.002Z,90.22
2022-10-26T21:53:30.679Z,90.46
2022-10-26T21:56:01.567Z,90.74
2022-10-26T21:58:29.744Z,90.47
2022-10-26T22:01:11.549Z,90.73
2022-10-26T22:03:39.129Z,90.25
2022-10-26T22:06:06.735Z,90.17
2022-10-26T22:08:33.569Z,90.10
2022-10-26T22:11:15.203Z,89.89
2022-10-26T22:13:42.997Z,90.53
2022-10-26T22:16:15.758Z,90.85
2022-10-26T22:18:44.153Z,90.53
2022-10-26T22:21:12.001Z,90.12
2022-10-26T22:23:40.573Z,90.35
2022-10-26T22:26:21.690Z,90.67
2022-10-26T22:28:50.424Z,90.48
2022-10-26T22:31:22.427Z,90.71
2022-10-26T22:34:07.329Z,91.13
2022-10-26T22:36:35.082Z,91.20
2022-10-26T22:39:01.630Z,91.34
2022-10-26T22:41:28.120Z,91.34
2022-10-26T22:43:54.553Z,91.52
2022-10-26T22:46:23.857Z,91.26
2022-10-26T22:48:58.334Z,91.28
2022-10-26T22:51:27.489Z,91.36
2022-10-26T22:53:55.617Z,91.33
2022-10-26T22:56:23.490Z,91.52
2022-10-26T22:58:51.982Z,91.64
2022-10-26T23:01:21.704Z,91.44
2022-10-26T23:03:48.653Z,91.58
2022-10-26T23:06:17.563Z,91.69
2022-10-26T23:08:44.707Z,91.46
2022-10-26T23:11:14.206Z,91.67
2022-10-26T23:13:40.666Z,91.47
2022-10-26T23:16:09.849Z,91.59
2022-10-26T23:18:36.909Z,91.85
2022-10-26T23:21:05.664Z,91.67
2022-10-26T23:23:32.159Z,91.53
2022-10-26T23:26:03.252Z,91.65
2022-10-26T23:28:29.772Z,91.73
2022-10-26T23:30:56.278Z,91.55
2022-10-26T23:33:22.894Z,91.73
2022-10-26T23:35:53.293Z,91.72
2022-10-26T23:38:20.238Z,91.62
2022-10-26T23:40:54.818Z,91.38
2022-10-26T23:43:22.393Z,91.40
2022-10-26T23:45:49.038Z,91.59
2022-10-26T23:48:16.125Z,91.69
2022-10-26T23:50:43.318Z,91.62
2022-10-26T23:53:11.234Z,91.50
2022-10-26T23:55:37.903Z,91.31
2022-10-26T23:58:04.489Z,91.38
